createdAt,value
2019-01-17T00:01:24.994Z,96.64
2019-01-17T00:04:09.051Z,96.80
2019-01-17T00:06:52.891Z,97.34
2019-01-17T00:09:43.017Z,97.49
2019-01-17T00:12:34.949Z,98.45
2019-01-17T00:15:24.640Z,98.70
2019-01-17T00:18:14.231Z,98.97
2019-01-17T00:20:56.550Z,99.38
2019-01-17T00:23:44.543Z,99.46
2019-01-17T00:26:28.160Z,99.39
2019-01-17T00:29:16.022Z,98.93
2019-01-17T00:32:11.319Z,98.62
2019-01-17T00:35:18.337Z,98.57
2019-01-17T00:38:10.307Z,98.28
2019-01-17T00:41:05.742Z,98.96
2019-01-17T00:43:54.537Z,99.25
2019-01-17T00:47:03.021Z,99.84
2019-01-17T00:50:03.969Z,100.00
2019-01-17T00:53:12.513Z,100.00
2019-01-17T00:56:13.610Z,100.00
2019-01-17T00:59:22.600Z,100.00
2019-01-17T01:02:21.262Z,100.00
2019-01-17T01:05:29.732Z,100.00
2019-01-17T01:08:24.176Z,100.00
2019-01-17T01:11:16.225Z,100.00
2019-01-17T01:14:14.192Z,100.00
2019-01-17T01:17:34.905Z,100.00
2019-01-17T01:20:26.142Z,100.00
2019-01-17T01:23:21.325Z,100.00
2019-01-17T01:26:29.116Z,100.00
2019-01-17T01:29:21.754Z,100.00
2019-01-17T01:32:09.213Z,100.00
2019-01-17T01:34:50.281Z,100.00
2019-01-17T01:37:30.527Z,100.00
2019-01-17T01:40:22.543Z,100.00
2019-01-17T01:43:15.426Z,100.00
2019-01-17T01:46:23.002Z,100.00
2019-01-17T01:49:10.010Z,100.00
2019-01-17T01:51:46.879Z,100.00
2019-01-17T01:54:21.963Z,100.00
2019-01-17T01:56:49.864Z,100.00
2019-01-17T01:59:20.614Z,100.00
2019-01-17T02:01:51.080Z,100.00
2019-01-17T02:04:21.489Z,100.00
2019-01-17T02:06:51.840Z,100.00
2019-01-17T02:09:23.023Z,100.00
2019-01-17T02:11:54.046Z,100.00
2019-01-17T02:14:24.478Z,100.00
2019-01-17T02:16:55.185Z,100.00
2019-01-17T02:19:25.704Z,100.00
2019-01-17T02:21:56.138Z,100.00
2019-01-17T02:24:28.665Z,100.00
2019-01-17T02:26:59.160Z,100.00
2019-01-17T02:29:30.028Z,100.00
2019-01-17T02:32:00.783Z,100.00
2019-01-17T02:34:31.575Z,100.00
2019-01-17T02:37:02.299Z,100.00
2019-01-17T02:39:32.907Z,100.00
2019-01-17T02:42:03.391Z,100.00
2019-01-17T02:44:34.139Z,100.00
2019-01-17T02:47:04.598Z,100.00
2019-01-17T02:49:35.331Z,100.00
2019-01-17T02:52:06.057Z,100.00
2019-01-17T02:54:36.577Z,100.00
2019-01-17T02:57:07.109Z,100.00
2019-01-17T02:59:37.592Z,100.00
2019-01-17T03:02:08.111Z,100.00
2019-01-17T03:04:38.578Z,100.00
2019-01-17T03:07:09.287Z,100.00
2019-01-17T03:09:40.370Z,100.00
2019-01-17T03:12:10.834Z,100.00
2019-01-17T03:14:41.589Z,100.00
2019-01-17T03:17:12.079Z,100.00
2019-01-17T03:19:42.566Z,100.00
2019-01-17T03:22:13.086Z,100.00
2019-01-17T03:24:43.526Z,100.00
2019-01-17T03:27:33.132Z,100.00
2019-01-17T03:33:25.649Z,100.00
2019-01-17T03:36:15.526Z,100.00
2019-01-17T03:38:58.324Z,100.00
2019-01-17T03:41:48.237Z,100.00
2019-01-17T03:44:30.396Z,100.00
2019-01-17T03:50:26.612Z,100.00
2019-01-17T03:53:16.147Z,100.00
2019-01-17T03:56:05.849Z,100.00
2019-01-17T03:58:48.503Z,100.00
2019-01-17T04:01:18.978Z,100.00
2019-01-17T04:03:49.746Z,100.00
2019-01-17T04:06:20.176Z,100.00
2019-01-17T04:08:50.555Z,100.00
2019-01-17T04:11:21.300Z,100.00
2019-01-17T04:13:51.712Z,100.00
2019-01-17T04:16:22.163Z,100.00
2019-01-17T04:18:52.688Z,100.00
2019-01-17T04:21:23.085Z,100.00
2019-01-17T04:23:53.500Z,100.00
2019-01-17T04:26:24.254Z,100.00
2019-01-17T04:28:54.565Z,100.00
2019-01-17T04:31:25.025Z,100.00
2019-01-17T04:33:55.499Z,100.00
2019-01-17T04:36:26.232Z,100.00
2019-01-17T04:38:56.981Z,100.00
2019-01-17T04:41:27.466Z,100.00
2019-01-17T04:43:57.804Z,100.00
2019-01-17T04:46:28.427Z,100.00
2019-01-17T04:48:58.842Z,100.00
2019-01-17T04:51:29.379Z,100.00
2019-01-17T04:53:59.892Z,100.00
2019-01-17T04:56:30.585Z,100.00
2019-01-17T04:59:01.076Z,100.00
2019-01-17T05:01:31.899Z,100.00
2019-01-17T05:04:02.727Z,100.00
2019-01-17T05:06:52.329Z,100.00
2019-01-17T05:09:23.077Z,100.00
2019-01-17T05:11:54.456Z,100.00
2019-01-17T05:14:24.935Z,100.00
2019-01-17T05:16:55.380Z,100.00
2019-01-17T05:19:25.995Z,100.00
2019-01-17T05:21:56.467Z,100.00
2019-01-17T05:24:27.213Z,100.00
2019-01-17T05:26:57.596Z,100.00
2019-01-17T05:29:28.080Z,100.00
2019-01-17T05:31:58.513Z,100.00
2019-01-17T05:34:28.974Z,100.00
2019-01-17T05:36:59.501Z,100.00
2019-01-17T05:39:29.891Z,100.00
2019-01-17T05:42:00.400Z,100.00
2019-01-17T05:44:31.075Z,100.00
2019-01-17T05:47:01.566Z,100.00
2019-01-17T05:49:31.855Z,100.00
2019-01-17T05:52:02.733Z,100.00
2019-01-17T05:54:33.165Z,100.00
2019-01-17T05:57:03.568Z,100.00
2019-01-17T05:59:33.985Z,100.00
2019-01-17T06:02:05.184Z,100.00
2019-01-17T06:04:35.907Z,100.00
2019-01-17T06:07:06.440Z,100.00
2019-01-17T06:09:37.293Z,100.00
2019-01-17T06:12:07.738Z,100.00
2019-01-17T06:14:38.194Z,100.00
2019-01-17T06:17:08.672Z,100.00
2019-01-17T06:19:39.024Z,100.00
2019-01-17T06:22:09.774Z,100.00
2019-01-17T06:24:40.516Z,100.00
2019-01-17T06:27:12.745Z,100.00
2019-01-17T06:29:43.514Z,100.00
2019-01-17T06:32:14.022Z,100.00
2019-01-17T06:34:44.448Z,100.00
2019-01-17T06:37:14.817Z,100.00
2019-01-17T06:39:45.269Z,100.00
2019-01-17T06:42:16.239Z,100.00
2019-01-17T06:44:47.035Z,100.00
2019-01-17T06:47:17.474Z,100.00
2019-01-17T06:49:47.917Z,100.00
2019-01-17T06:52:19.901Z,100.00
2019-01-17T06:54:50.298Z,100.00
2019-01-17T06:57:20.759Z,100.00
2019-01-17T06:59:51.107Z,100.00
2019-01-17T07:02:21.631Z,100.00
2019-01-17T07:04:52.167Z,100.00
2019-01-17T07:07:22.597Z,100.00
2019-01-17T07:09:54.194Z,100.00
2019-01-17T07:12:24.677Z,100.00
2019-01-17T07:14:55.042Z,100.00
2019-01-17T07:17:25.525Z,100.00
2019-01-17T07:19:55.946Z,100.00
2019-01-17T07:22:26.631Z,100.00
2019-01-17T07:24:57.024Z,100.00
2019-01-17T07:27:27.762Z,100.00
2019-01-17T07:29:58.255Z,100.00
2019-01-17T07:32:28.610Z,99.08
2019-01-17T07:34:59.371Z,98.69
2019-01-17T07:37:30.107Z,98.61
2019-01-17T07:40:00.634Z,98.16
2019-01-17T07:42:31.030Z,97.99
2019-01-17T07:45:01.762Z,97.36
2019-01-17T07:47:32.445Z,97.03
2019-01-17T07:50:02.861Z,97.30
2019-01-17T07:52:33.284Z,96.83
2019-01-17T07:55:03.747Z,97.18
2019-01-17T07:57:34.101Z,97.79
2019-01-17T08:00:05.840Z,98.07
2019-01-17T08:02:36.291Z,98.48
2019-01-17T08:05:07.660Z,98.87
2019-01-17T08:07:38.158Z,99.41
2019-01-17T08:10:11.621Z,99.34
2019-01-17T08:12:42.299Z,99.16
2019-01-17T08:15:17.557Z,99.51
2019-01-17T08:17:48.001Z,99.52
2019-01-17T08:20:25.264Z,99.46
2019-01-17T08:22:55.821Z,99.39
2019-01-17T08:25:26.251Z,99.07
2019-01-17T08:27:56.727Z,99.40
2019-01-17T08:30:28.780Z,99.54
2019-01-17T08:32:59.446Z,99.22
2019-01-17T08:35:30.196Z,98.31
2019-01-17T08:38:00.634Z,98.48
2019-01-17T08:40:33.728Z,98.39
2019-01-17T08:43:04.669Z,97.79
2019-01-17T08:45:35.095Z,97.65
2019-01-17T08:48:06.011Z,98.08
2019-01-17T08:50:36.464Z,98.12
2019-01-17T08:53:07.089Z,97.84
2019-01-17T08:55:37.806Z,97.25
2019-01-17T08:58:08.547Z,97.08
2019-01-17T09:00:39.302Z,97.45
2019-01-17T09:03:09.983Z,97.24
2019-01-17T09:05:40.854Z,97.29
2019-01-17T09:08:11.569Z,96.89
2019-01-17T09:10:42.306Z,97.02
2019-01-17T09:13:13.084Z,96.59
2019-01-17T09:15:43.432Z,96.77
2019-01-17T09:18:13.883Z,96.09
2019-01-17T09:20:44.616Z,95.78
2019-01-17T09:23:15.061Z,95.70
2019-01-17T09:25:45.495Z,95.96
2019-01-17T09:28:15.837Z,95.70
2019-01-17T09:30:46.191Z,94.91
2019-01-17T09:33:16.633Z,95.21
2019-01-17T09:35:47.115Z,94.63
2019-01-17T09:38:17.592Z,95.56
2019-01-17T09:40:48.006Z,95.30
2019-01-17T09:43:37.622Z,94.54
2019-01-17T09:49:33.790Z,98.20
2019-01-17T09:55:25.042Z,98.57
2019-01-17T09:58:07.157Z,99.26
2019-01-17T10:00:56.780Z,100.00
2019-01-17T10:03:27.210Z,100.00
2019-01-17T10:05:57.652Z,100.00
2019-01-17T10:08:28.102Z,100.00
2019-01-17T10:10:58.475Z,100.00
2019-01-17T10:13:32.087Z,100.00
2019-01-17T10:16:27.828Z,100.00
2019-01-17T10:20:04.506Z,100.00
2019-01-17T10:23:48.810Z,100.00
2019-01-17T10:27:03.608Z,100.00
2019-01-17T10:30:30.419Z,100.00
2019-01-17T10:33:27.153Z,100.00
2019-01-17T10:36:57.863Z,100.00
2019-01-17T10:40:04.348Z,100.00
2019-01-17T10:43:40.519Z,100.00
2019-01-17T10:47:10.471Z,100.00
2019-01-17T10:50:26.199Z,100.00
2019-01-17T10:53:58.055Z,100.00
2019-01-17T10:57:31.599Z,100.00
2019-01-17T11:00:31.892Z,100.00
2019-01-17T11:03:47.079Z,100.00
2019-01-17T11:06:52.598Z,100.00
2019-01-17T11:09:52.317Z,100.00
2019-01-17T11:13:09.783Z,100.00
2019-01-17T11:16:37.538Z,100.00
2019-01-17T11:20:04.857Z,100.00
2019-01-17T11:23:11.456Z,100.00
2019-01-17T11:26:37.462Z,100.00
2019-01-17T11:30:05.105Z,100.00
2019-01-17T11:33:27.493Z,100.00
2019-01-17T11:36:56.666Z,100.00
2019-01-17T11:40:05.097Z,100.00
2019-01-17T11:43:23.053Z,100.00
2019-01-17T11:46:33.941Z,100.00
2019-01-17T11:49:45.045Z,100.00
2019-01-17T11:53:16.455Z,100.00
2019-01-17T11:56:40.870Z,100.00
2019-01-17T12:00:01.069Z,100.00
2019-01-17T12:03:40.300Z,100.00
2019-01-17T12:06:11.046Z,100.00
2019-01-17T12:08:41.769Z,100.00
2019-01-17T12:11:12.451Z,100.00
2019-01-17T12:13:42.826Z,100.00
2019-01-17T12:16:13.275Z,100.00
2019-01-17T12:18:44.006Z,100.00
2019-01-17T12:21:14.467Z,100.00
2019-01-17T12:23:45.320Z,100.00
2019-01-17T12:26:16.282Z,100.00
2019-01-17T12:28:46.776Z,100.00
2019-01-17T12:31:17.344Z,100.00
2019-01-17T12:33:47.810Z,100.00
2019-01-17T12:36:18.245Z,100.00
2019-01-17T12:38:48.894Z,100.00
2019-01-17T12:41:19.616Z,100.00
2019-01-17T12:43:50.341Z,100.00
2019-01-17T12:46:20.708Z,100.00
2019-01-17T12:48:51.207Z,100.00
2019-01-17T12:51:21.644Z,100.00
2019-01-17T12:53:52.037Z,100.00
2019-01-17T12:56:22.456Z,100.00
2019-01-17T12:58:52.890Z,100.00
2019-01-17T13:01:23.649Z,100.00
2019-01-17T13:03:54.039Z,100.00
2019-01-17T13:06:24.723Z,100.00
2019-01-17T13:08:55.642Z,100.00
2019-01-17T13:11:26.356Z,100.00
2019-01-17T13:13:57.004Z,100.00
2019-01-17T13:16:27.715Z,100.00
2019-01-17T13:18:58.363Z,100.00
2019-01-17T13:21:29.191Z,100.00
2019-01-17T13:23:59.842Z,100.00
2019-01-17T13:26:30.397Z,100.00
2019-01-17T13:29:01.248Z,100.00
2019-01-17T13:31:31.946Z,100.00
2019-01-17T13:34:02.657Z,100.00
2019-01-17T13:36:33.440Z,100.00
2019-01-17T13:39:06.094Z,100.00
2019-01-17T13:41:36.804Z,100.00
2019-01-17T13:44:07.793Z,100.00
2019-01-17T13:46:38.586Z,100.00
2019-01-17T13:49:09.498Z,100.00
2019-01-17T13:51:40.226Z,100.00
2019-01-17T13:54:10.941Z,100.00
2019-01-17T13:56:41.768Z,100.00
2019-01-17T13:59:12.367Z,100.00
2019-01-17T14:01:43.367Z,100.00
2019-01-17T14:04:14.285Z,100.00
2019-01-17T14:06:45.005Z,100.00
2019-01-17T14:09:15.750Z,100.00
2019-01-17T14:11:46.828Z,100.00
2019-01-17T14:14:17.477Z,100.00
2019-01-17T14:16:48.000Z,100.00
2019-01-17T14:19:18.998Z,100.00
2019-01-17T14:21:49.939Z,100.00
2019-01-17T14:24:20.632Z,100.00
2019-01-17T14:26:51.750Z,100.00
2019-01-17T14:29:22.329Z,100.00
2019-01-17T14:31:53.213Z,100.00
2019-01-17T14:34:23.826Z,100.00
2019-01-17T14:36:54.610Z,100.00
2019-01-17T14:39:25.429Z,100.00
2019-01-17T14:41:56.390Z,100.00
2019-01-17T14:44:26.919Z,100.00
2019-01-17T14:46:57.541Z,100.00
2019-01-17T14:49:28.267Z,100.00
2019-01-17T14:51:58.871Z,100.00
2019-01-17T14:54:29.621Z,100.00
2019-01-17T14:57:00.361Z,100.00
2019-01-17T14:59:30.732Z,100.00
2019-01-17T15:02:01.110Z,100.00
2019-01-17T15:04:31.521Z,100.00
2019-01-17T15:07:02.518Z,100.00
2019-01-17T15:09:33.194Z,100.00
2019-01-17T15:12:04.042Z,100.00
2019-01-17T15:14:34.476Z,100.00
2019-01-17T15:17:05.469Z,100.00
2019-01-17T15:19:35.928Z,100.00
2019-01-17T15:22:06.363Z,100.00
2019-01-17T15:24:37.406Z,100.00
2019-01-17T15:27:07.813Z,100.00
2019-01-17T15:29:38.517Z,100.00
2019-01-17T15:32:09.245Z,100.00
2019-01-17T15:34:40.204Z,100.00
2019-01-17T15:37:11.454Z,100.00
2019-01-17T15:39:42.061Z,100.00
2019-01-17T15:42:13.204Z,100.00
2019-01-17T15:44:44.741Z,100.00
2019-01-17T15:47:15.476Z,100.00
2019-01-17T15:49:46.172Z,100.00
2019-01-17T15:52:16.597Z,100.00
2019-01-17T15:54:47.069Z,100.00
2019-01-17T15:57:17.850Z,100.00
2019-01-17T15:59:48.583Z,100.00
2019-01-17T16:02:19.255Z,100.00
2019-01-17T16:04:49.750Z,100.00
2019-01-17T16:07:20.344Z,100.00
2019-01-17T16:09:50.958Z,100.00
2019-01-17T16:12:21.702Z,100.00
2019-01-17T16:14:52.093Z,100.00
2019-01-17T16:17:22.532Z,100.00
2019-01-17T16:19:52.918Z,100.00
2019-01-17T16:22:23.367Z,100.00
2019-01-17T16:24:54.015Z,100.00
2019-01-17T16:27:25.033Z,100.00
2019-01-17T16:29:55.496Z,100.00
2019-01-17T16:32:25.991Z,100.00
2019-01-17T16:34:56.748Z,100.00
2019-01-17T16:37:27.129Z,100.00
2019-01-17T16:39:57.816Z,100.00
2019-01-17T16:42:28.443Z,100.00
2019-01-17T16:44:59.124Z,100.00
2019-01-17T16:47:29.852Z,100.00
2019-01-17T16:50:00.597Z,100.00
2019-01-17T16:52:31.236Z,100.00
2019-01-17T16:55:01.580Z,100.00
2019-01-17T16:57:32.107Z,100.00
2019-01-17T17:00:02.583Z,100.00
2019-01-17T17:02:33.022Z,100.00
2019-01-17T17:05:03.404Z,100.00
2019-01-17T17:07:34.311Z,100.00
2019-01-17T17:10:05.988Z,100.00
2019-01-17T17:12:36.452Z,100.00
2019-01-17T17:15:08.178Z,100.00
2019-01-17T17:17:38.691Z,100.00
2019-01-17T17:20:13.105Z,100.00
2019-01-17T17:22:43.879Z,100.00
2019-01-17T17:25:14.352Z,100.00
2019-01-17T17:27:44.898Z,100.00
2019-01-17T17:30:19.286Z,100.00
2019-01-17T17:32:49.862Z,100.00
2019-01-17T17:35:20.341Z,100.00
2019-01-17T17:37:51.236Z,100.00
2019-01-17T17:40:25.418Z,100.00
2019-01-17T17:42:56.001Z,100.00
2019-01-17T17:45:26.764Z,100.00
2019-01-17T17:47:59.743Z,100.00
2019-01-17T17:50:30.464Z,100.00
2019-01-17T17:53:00.869Z,100.00
2019-01-17T17:55:31.323Z,100.00
2019-01-17T17:58:02.328Z,100.00
2019-01-17T18:00:49.265Z,100.00
2019-01-17T18:03:19.727Z,100.00
2019-01-17T18:05:50.891Z,100.00
2019-01-17T18:08:21.423Z,100.00
2019-01-17T18:10:52.007Z,100.00
2019-01-17T18:13:22.472Z,100.00
2019-01-17T18:15:53.332Z,100.00
2019-01-17T18:18:23.891Z,100.00
2019-01-17T18:20:54.631Z,100.00
2019-01-17T18:23:25.037Z,100.00
2019-01-17T18:25:55.508Z,100.00
2019-01-17T18:28:26.186Z,100.00
2019-01-17T18:30:56.824Z,100.00
2019-01-17T18:33:27.284Z,100.00
2019-01-17T18:35:57.735Z,100.00
2019-01-17T18:38:28.532Z,100.00
2019-01-17T18:40:58.935Z,100.00
2019-01-17T18:43:29.378Z,100.00
2019-01-17T18:45:59.866Z,100.00
2019-01-17T18:48:30.780Z,100.00
2019-01-17T18:51:01.223Z,100.00
2019-01-17T18:53:31.817Z,100.00
2019-01-17T18:56:02.504Z,100.00
2019-01-17T18:58:33.315Z,100.00
2019-01-17T19:01:03.789Z,100.00
2019-01-17T19:03:34.150Z,100.00
2019-01-17T19:06:04.885Z,100.00
2019-01-17T19:08:35.352Z,100.00
2019-01-17T19:11:06.259Z,100.00
2019-01-17T19:13:36.649Z,100.00
2019-01-17T19:16:07.267Z,100.00
2019-01-17T19:18:37.960Z,100.00
2019-01-17T19:21:08.432Z,100.00
2019-01-17T19:23:39.276Z,100.00
2019-01-17T19:26:10.083Z,100.00
2019-01-17T19:28:40.561Z,100.00
2019-01-17T19:31:11.842Z,100.00
2019-01-17T19:33:42.604Z,100.00
2019-01-17T19:36:13.327Z,100.00
2019-01-17T19:38:44.104Z,100.00
2019-01-17T19:41:14.615Z,100.00
2019-01-17T19:43:45.295Z,100.00
2019-01-17T19:46:16.068Z,100.00
2019-01-17T19:48:46.513Z,100.00
2019-01-17T19:51:17.025Z,100.00
2019-01-17T19:53:47.784Z,100.00
2019-01-17T19:56:18.586Z,100.00
2019-01-17T19:58:49.026Z,100.00
2019-01-17T20:04:45.498Z,100.00
2019-01-17T20:07:35.081Z,100.00
2019-01-17T20:13:35.226Z,100.00
2019-01-17T20:16:25.282Z,100.00
2019-01-17T20:19:15.191Z,100.00
2019-01-17T20:21:57.668Z,100.00
2019-01-17T20:24:47.854Z,100.00
2019-01-17T20:27:30.507Z,100.00
2019-01-17T20:31:00.513Z,100.00
2019-01-17T20:33:43.019Z,100.00
2019-01-17T20:36:51.717Z,100.00
2019-01-17T20:39:33.895Z,100.00
2019-01-17T20:42:42.317Z,100.00
2019-01-17T20:45:26.605Z,100.00
2019-01-17T20:48:16.194Z,100.00
2019-01-17T20:50:59.019Z,100.00
2019-01-17T20:53:48.608Z,100.00
2019-01-17T20:56:29.534Z,100.00
2019-01-17T20:59:12.492Z,100.00
2019-01-17T21:02:21.624Z,100.00
2019-01-17T21:05:04.801Z,100.00
2019-01-17T21:07:54.697Z,100.00
2019-01-17T21:10:36.863Z,100.00
2019-01-17T21:16:33.139Z,100.00
2019-01-17T21:25:25.173Z,100.00
2019-01-17T21:28:07.803Z,100.00
2019-01-17T21:31:16.205Z,100.00
2019-01-17T21:33:58.264Z,100.00
2019-01-17T21:36:48.172Z,100.00
2019-01-17T21:39:30.425Z,100.00
2019-01-17T21:42:38.889Z,100.00
2019-01-17T21:45:22.587Z,100.00
2019-01-17T21:48:12.736Z,100.00
2019-01-17T21:50:55.394Z,100.00
2019-01-17T21:53:25.745Z,100.00
2019-01-17T21:55:56.377Z,100.00
2019-01-17T21:58:46.018Z,100.00
2019-01-17T22:01:28.164Z,100.00
2019-01-17T22:04:18.201Z,100.00
2019-01-17T22:07:00.494Z,100.00
2019-01-17T22:09:50.490Z,100.00
2019-01-17T22:12:32.668Z,100.00
2019-01-17T22:16:02.373Z,100.00
2019-01-17T22:18:32.885Z,100.00
2019-01-17T22:21:03.634Z,100.00
2019-01-17T22:23:34.367Z,100.00
2019-01-17T22:26:05.809Z,100.00
2019-01-17T22:28:36.400Z,100.00
2019-01-17T22:46:46.327Z,100.00
2019-01-17T22:49:16.852Z,100.00
2019-01-17T22:51:47.387Z,100.00
2019-01-17T22:54:18.042Z,100.00
2019-01-17T22:56:48.680Z,100.00
2019-01-17T22:59:19.049Z,100.00
2019-01-17T23:01:49.588Z,100.00
2019-01-17T23:04:20.077Z,100.00
2019-01-17T23:06:50.707Z,100.00
2019-01-17T23:09:21.295Z,100.00
2019-01-17T23:11:52.725Z,100.00
2019-01-17T23:14:23.591Z,100.00
2019-01-17T23:16:54.084Z,100.00
2019-01-17T23:19:24.821Z,100.00
2019-01-17T23:21:55.531Z,100.00
2019-01-17T23:24:26.362Z,100.00
2019-01-17T23:26:57.050Z,100.00
2019-01-17T23:29:27.724Z,100.00
2019-01-17T23:31:58.302Z,100.00
2019-01-17T23:34:28.834Z,100.00
2019-01-17T23:36:59.906Z,100.00
2019-01-17T23:39:30.640Z,100.00
2019-01-17T23:42:01.307Z,100.00
2019-01-17T23:44:31.726Z,100.00
2019-01-17T23:47:02.380Z,100.00
2019-01-17T23:49:33.004Z,100.00
2019-01-17T23:52:03.738Z,100.00
2019-01-17T23:54:34.237Z,100.00
2019-01-17T23:57:04.792Z,100.00
2019-01-17T23:59:35.609Z,100.00
